Terminal Aerodrome Forecast
Issued by NWS Sioux Falls, SD

Home | Current Version | Previous Version | Text Only | Print | Product List | Glossary On
Versions: 1 2 3 4 5 6 7 8 9 10 11 12 13 14 15
377
FTUS43 KFSD 241120
TAFFSD
TAF
KFSD 241120Z 2412/2512 08008KT P6SM OVC008
     FM241700 08012KT P6SM VCSH OVC008
     FM242000 06013KT 3SM -SN OVC008
     FM242100 06013KT 2SM -SN OVC003
     FM242300 05015G23KT 3/4SM -SN BLSN OVC003
     FM250000 04016KT 1/2SM SN BLSN OVC003
     FM250600 01017G25KT 1 1/2SM -SN BLSN OVC008=

USA.gov is the U.S. government's official web portal to all federal, state and local government web resources and services.